sensor_id;sensor_type;location;lat;lon;timestamp;P1;durP1;ratioP1;P2;durP2;ratioP2
83354;SDS011;75108;50.882;5.984;2024-01-11T00:00:32;21.85;;;15.00;;
83354;SDS011;75108;50.882;5.984;2024-01-11T00:02:57;24.40;;;16.30;;
83354;SDS011;75108;50.882;5.984;2024-01-11T00:05:23;24.37;;;15.30;;
83354;SDS011;75108;50.882;5.984;2024-01-11T00:07:48;23.60;;;15.77;;
83354;SDS011;75108;50.882;5.984;2024-01-11T00:10:13;24.77;;;16.02;;
83354;SDS011;75108;50.882;5.984;2024-01-11T00:12:39;23.47;;;15.20;;
83354;SDS011;75108;50.882;5.984;2024-01-11T00:15:05;22.63;;;15.57;;
83354;SDS011;75108;50.882;5.984;2024-01-11T00:17:31;23.63;;;15.73;;
83354;SDS011;75108;50.882;5.984;2024-01-11T00:19:56;24.97;;;15.40;;
83354;SDS011;75108;50.882;5.984;2024-01-11T00:22:22;23.57;;;15.53;;
83354;SDS011;75108;50.882;5.984;2024-01-11T00:24:48;22.08;;;15.27;;
83354;SDS011;75108;50.882;5.984;2024-01-11T00:27:13;21.83;;;15.17;;
83354;SDS011;75108;50.882;5.984;2024-01-11T00:29:39;22.90;;;15.60;;
83354;SDS011;75108;50.882;5.984;2024-01-11T00:32:04;23.77;;;16.00;;
83354;SDS011;75108;50.882;5.984;2024-01-11T00:34:30;23.43;;;15.00;;
83354;SDS011;75108;50.882;5.984;2024-01-11T00:36:55;24.40;;;15.95;;
83354;SDS011;75108;50.882;5.984;2024-01-11T00:39:21;22.77;;;15.23;;
83354;SDS011;75108;50.882;5.984;2024-01-11T00:41:47;22.53;;;14.60;;
83354;SDS011;75108;50.882;5.984;2024-01-11T00:44:12;21.57;;;14.90;;
83354;SDS011;75108;50.882;5.984;2024-01-11T00:46:37;24.87;;;15.70;;
83354;SDS011;75108;50.882;5.984;2024-01-11T00:49:04;23.02;;;15.35;;
83354;SDS011;75108;50.882;5.984;2024-01-11T00:51:30;24.93;;;15.30;;
83354;SDS011;75108;50.882;5.984;2024-01-11T00:53:55;21.30;;;14.73;;
83354;SDS011;75108;50.882;5.984;2024-01-11T00:56:21;22.48;;;15.65;;
83354;SDS011;75108;50.882;5.984;2024-01-11T00:58:47;23.17;;;15.03;;
83354;SDS011;75108;50.882;5.984;2024-01-11T01:01:12;22.45;;;15.27;;
83354;SDS011;75108;50.882;5.984;2024-01-11T01:03:39;24.00;;;15.33;;
83354;SDS011;75108;50.882;5.984;2024-01-11T01:06:05;22.52;;;15.18;;
83354;SDS011;75108;50.882;5.984;2024-01-11T01:08:31;24.20;;;15.70;;
83354;SDS011;75108;50.882;5.984;2024-01-11T01:10:57;21.08;;;14.70;;
83354;SDS011;75108;50.882;5.984;2024-01-11T01:13:23;24.00;;;15.15;;
83354;SDS011;75108;50.882;5.984;2024-01-11T01:15:48;22.70;;;14.90;;
83354;SDS011;75108;50.882;5.984;2024-01-11T01:18:14;24.47;;;15.87;;
83354;SDS011;75108;50.882;5.984;2024-01-11T01:20:39;23.77;;;15.32;;
83354;SDS011;75108;50.882;5.984;2024-01-11T01:23:05;22.10;;;14.90;;
83354;SDS011;75108;50.882;5.984;2024-01-11T01:25:31;20.97;;;15.27;;
83354;SDS011;75108;50.882;5.984;2024-01-11T01:27:57;24.17;;;14.97;;
83354;SDS011;75108;50.882;5.984;2024-01-11T01:30:24;22.40;;;15.13;;
83354;SDS011;75108;50.882;5.984;2024-01-11T01:32:56;22.33;;;14.68;;
83354;SDS011;75108;50.882;5.984;2024-01-11T01:42:29;20.67;;;13.97;;
83354;SDS011;75108;50.882;5.984;2024-01-11T01:45:23;23.15;;;15.23;;
83354;SDS011;75108;50.882;5.984;2024-01-11T01:47:48;23.73;;;15.13;;
83354;SDS011;75108;50.882;5.984;2024-01-11T01:50:17;23.08;;;15.00;;
83354;SDS011;75108;50.882;5.984;2024-01-11T01:52:53;21.75;;;15.30;;
83354;SDS011;75108;50.882;5.984;2024-01-11T02:03:02;21.88;;;14.65;;
83354;SDS011;75108;50.882;5.984;2024-01-11T02:05:29;21.60;;;14.85;;
83354;SDS011;75108;50.882;5.984;2024-01-11T02:07:58;22.33;;;14.38;;
83354;SDS011;75108;50.882;5.984;2024-01-11T02:10:28;22.40;;;14.67;;
83354;SDS011;75108;50.882;5.984;2024-01-11T02:12:58;22.20;;;14.98;;
83354;SDS011;75108;50.882;5.984;2024-01-11T02:15:24;21.73;;;15.18;;
83354;SDS011;75108;50.882;5.984;2024-01-11T02:17:49;22.87;;;15.23;;
83354;SDS011;75108;50.882;5.984;2024-01-11T02:20:15;22.43;;;15.30;;
83354;SDS011;75108;50.882;5.984;2024-01-11T02:22:41;22.92;;;14.95;;
83354;SDS011;75108;50.882;5.984;2024-01-11T02:25:11;22.45;;;14.95;;
83354;SDS011;75108;50.882;5.984;2024-01-11T02:27:49;20.87;;;14.97;;
83354;SDS011;75108;50.882;5.984;2024-01-11T02:30:16;22.35;;;15.23;;
83354;SDS011;75108;50.882;5.984;2024-01-11T02:39:04;20.33;;;14.25;;
83354;SDS011;75108;50.882;5.984;2024-01-11T02:41:30;20.67;;;14.10;;
83354;SDS011;75108;50.882;5.984;2024-01-11T02:43:57;21.17;;;14.05;;
83354;SDS011;75108;50.882;5.984;2024-01-11T02:46:24;22.00;;;14.33;;
83354;SDS011;75108;50.882;5.984;2024-01-11T02:48:49;22.15;;;14.70;;
83354;SDS011;75108;50.882;5.984;2024-01-11T02:51:15;21.40;;;15.00;;
83354;SDS011;75108;50.882;5.984;2024-01-11T02:53:40;21.93;;;14.77;;
83354;SDS011;75108;50.882;5.984;2024-01-11T02:56:06;21.70;;;14.83;;
83354;SDS011;75108;50.882;5.984;2024-01-11T02:58:31;23.25;;;15.20;;
83354;SDS011;75108;50.882;5.984;2024-01-11T03:00:56;20.93;;;15.07;;
83354;SDS011;75108;50.882;5.984;2024-01-11T03:03:22;21.73;;;15.43;;
83354;SDS011;75108;50.882;5.984;2024-01-11T03:05:47;23.17;;;14.97;;
83354;SDS011;75108;50.882;5.984;2024-01-11T03:08:12;21.70;;;15.17;;
83354;SDS011;75108;50.882;5.984;2024-01-11T03:10:39;22.15;;;14.68;;
83354;SDS011;75108;50.882;5.984;2024-01-11T03:13:05;19.75;;;14.65;;
83354;SDS011;75108;50.882;5.984;2024-01-11T03:15:32;22.33;;;14.97;;
83354;SDS011;75108;50.882;5.984;2024-01-11T03:17:57;21.48;;;15.20;;
83354;SDS011;75108;50.882;5.984;2024-01-11T03:20:23;21.93;;;15.40;;
83354;SDS011;75108;50.882;5.984;2024-01-11T03:22:50;21.87;;;15.27;;
83354;SDS011;75108;50.882;5.984;2024-01-11T03:25:16;21.80;;;15.50;;
83354;SDS011;75108;50.882;5.984;2024-01-11T03:27:42;23.85;;;15.60;;
83354;SDS011;75108;50.882;5.984;2024-01-11T03:30:07;22.37;;;14.90;;
83354;SDS011;75108;50.882;5.984;2024-01-11T03:32:33;23.37;;;16.30;;
83354;SDS011;75108;50.882;5.984;2024-01-11T03:34:58;20.87;;;15.70;;
83354;SDS011;75108;50.882;5.984;2024-01-11T03:37:24;23.10;;;15.33;;
83354;SDS011;75108;50.882;5.984;2024-01-11T03:39:49;22.30;;;15.20;;
83354;SDS011;75108;50.882;5.984;2024-01-11T03:42:15;21.93;;;15.27;;
83354;SDS011;75108;50.882;5.984;2024-01-11T03:44:40;23.00;;;15.50;;
83354;SDS011;75108;50.882;5.984;2024-01-11T03:47:06;23.17;;;15.37;;
83354;SDS011;75108;50.882;5.984;2024-01-11T03:49:31;22.97;;;15.77;;
83354;SDS011;75108;50.882;5.984;2024-01-11T03:51:57;25.08;;;16.40;;
83354;SDS011;75108;50.882;5.984;2024-01-11T03:54:22;24.07;;;15.80;;
83354;SDS011;75108;50.882;5.984;2024-01-11T03:56:48;24.07;;;15.20;;
83354;SDS011;75108;50.882;5.984;2024-01-11T03:59:13;22.60;;;15.57;;
83354;SDS011;75108;50.882;5.984;2024-01-11T04:01:42;21.50;;;15.65;;
83354;SDS011;75108;50.882;5.984;2024-01-11T04:04:08;21.75;;;15.30;;
83354;SDS011;75108;50.882;5.984;2024-01-11T04:06:33;21.57;;;15.13;;
83354;SDS011;75108;50.882;5.984;2024-01-11T04:08:59;22.10;;;15.27;;
83354;SDS011;75108;50.882;5.984;2024-01-11T04:11:28;21.92;;;14.95;;
83354;SDS011;75108;50.882;5.984;2024-01-11T04:13:53;21.00;;;14.48;;
83354;SDS011;75108;50.882;5.984;2024-01-11T04:16:19;21.60;;;14.80;;
83354;SDS011;75108;50.882;5.984;2024-01-11T04:18:45;24.15;;;15.20;;
83354;SDS011;75108;50.882;5.984;2024-01-11T04:21:21;25.83;;;15.30;;
83354;SDS011;75108;50.882;5.984;2024-01-11T04:23:46;23.35;;;15.00;;
83354;SDS011;75108;50.882;5.984;2024-01-11T04:26:12;22.93;;;15.13;;
83354;SDS011;75108;50.882;5.984;2024-01-11T04:28:37;22.17;;;15.07;;
83354;SDS011;75108;50.882;5.984;2024-01-11T04:31:03;21.70;;;15.03;;
83354;SDS011;75108;50.882;5.984;2024-01-11T04:33:28;23.13;;;15.77;;
83354;SDS011;75108;50.882;5.984;2024-01-11T04:35:53;21.87;;;14.90;;
83354;SDS011;75108;50.882;5.984;2024-01-11T04:38:19;24.07;;;16.17;;
83354;SDS011;75108;50.882;5.984;2024-01-11T04:40:44;26.58;;;16.20;;
83354;SDS011;75108;50.882;5.984;2024-01-11T04:43:10;23.27;;;15.63;;
83354;SDS011;75108;50.882;5.984;2024-01-11T04:45:35;23.07;;;15.27;;
83354;SDS011;75108;50.882;5.984;2024-01-11T04:48:01;24.73;;;15.43;;
83354;SDS011;75108;50.882;5.984;2024-01-11T04:50:27;24.50;;;15.77;;
83354;SDS011;75108;50.882;5.984;2024-01-11T04:52:52;25.25;;;15.55;;
83354;SDS011;75108;50.882;5.984;2024-01-11T04:55:17;24.00;;;15.00;;
83354;SDS011;75108;50.882;5.984;2024-01-11T04:57:43;24.17;;;15.90;;
83354;SDS011;75108;50.882;5.984;2024-01-11T05:00:09;23.70;;;15.17;;
83354;SDS011;75108;50.882;5.984;2024-01-11T05:02:35;22.65;;;15.73;;
83354;SDS011;75108;50.882;5.984;2024-01-11T05:05:00;24.27;;;14.87;;
83354;SDS011;75108;50.882;5.984;2024-01-11T05:07:27;23.15;;;14.68;;
83354;SDS011;75108;50.882;5.984;2024-01-11T05:09:52;22.10;;;14.80;;
83354;SDS011;75108;50.882;5.984;2024-01-11T05:12:18;25.13;;;15.47;;
83354;SDS011;75108;50.882;5.984;2024-01-11T05:14:43;24.80;;;15.40;;
83354;SDS011;75108;50.882;5.984;2024-01-11T05:17:08;22.20;;;14.93;;
83354;SDS011;75108;50.882;5.984;2024-01-11T05:19:34;26.27;;;15.07;;
83354;SDS011;75108;50.882;5.984;2024-01-11T05:21:59;27.03;;;15.87;;
83354;SDS011;75108;50.882;5.984;2024-01-11T05:24:25;22.60;;;15.13;;
83354;SDS011;75108;50.882;5.984;2024-01-11T05:26:50;24.47;;;14.77;;
83354;SDS011;75108;50.882;5.984;2024-01-11T05:29:16;26.23;;;14.80;;
83354;SDS011;75108;50.882;5.984;2024-01-11T05:31:41;22.38;;;15.05;;
83354;SDS011;75108;50.882;5.984;2024-01-11T05:34:07;25.57;;;14.60;;
83354;SDS011;75108;50.882;5.984;2024-01-11T05:36:33;22.02;;;15.02;;
83354;SDS011;75108;50.882;5.984;2024-01-11T05:38:59;23.77;;;15.00;;
83354;SDS011;75108;50.882;5.984;2024-01-11T05:41:24;23.30;;;15.37;;
83354;SDS011;75108;50.882;5.984;2024-01-11T05:43:50;22.85;;;15.05;;
83354;SDS011;75108;50.882;5.984;2024-01-11T05:46:15;24.27;;;15.17;;
83354;SDS011;75108;50.882;5.984;2024-01-11T05:48:41;24.13;;;15.20;;
83354;SDS011;75108;50.882;5.984;2024-01-11T05:51:08;24.85;;;15.32;;
83354;SDS011;75108;50.882;5.984;2024-01-11T05:53:34;21.20;;;14.45;;
83354;SDS011;75108;50.882;5.984;2024-01-11T05:56:00;21.60;;;14.37;;
83354;SDS011;75108;50.882;5.984;2024-01-11T05:58:26;22.77;;;15.07;;
83354;SDS011;75108;50.882;5.984;2024-01-11T06:00:51;22.53;;;14.97;;
83354;SDS011;75108;50.882;5.984;2024-01-11T06:03:17;22.47;;;14.27;;
83354;SDS011;75108;50.882;5.984;2024-01-11T06:05:42;23.27;;;14.93;;
83354;SDS011;75108;50.882;5.984;2024-01-11T06:08:08;22.83;;;14.37;;
83354;SDS011;75108;50.882;5.984;2024-01-11T06:10:33;22.27;;;14.60;;
83354;SDS011;75108;50.882;5.984;2024-01-11T06:12:59;24.10;;;14.77;;
83354;SDS011;75108;50.882;5.984;2024-01-11T06:15:24;22.05;;;14.70;;
83354;SDS011;75108;50.882;5.984;2024-01-11T06:17:49;22.70;;;14.97;;
83354;SDS011;75108;50.882;5.984;2024-01-11T06:20:15;21.07;;;14.03;;
83354;SDS011;75108;50.882;5.984;2024-01-11T06:22:41;24.63;;;14.68;;
83354;SDS011;75108;50.882;5.984;2024-01-11T06:25:06;24.93;;;15.33;;
83354;SDS011;75108;50.882;5.984;2024-01-11T06:27:32;28.27;;;16.97;;
83354;SDS011;75108;50.882;5.984;2024-01-11T06:29:57;31.58;;;16.90;;
83354;SDS011;75108;50.882;5.984;2024-01-11T06:32:23;29.73;;;16.65;;
83354;SDS011;75108;50.882;5.984;2024-01-11T06:34:49;30.87;;;16.30;;
83354;SDS011;75108;50.882;5.984;2024-01-11T06:37:14;29.13;;;16.37;;
83354;SDS011;75108;50.882;5.984;2024-01-11T06:39:40;31.00;;;15.73;;
83354;SDS011;75108;50.882;5.984;2024-01-11T06:42:05;28.73;;;15.70;;
83354;SDS011;75108;50.882;5.984;2024-01-11T06:44:30;29.63;;;16.38;;
83354;SDS011;75108;50.882;5.984;2024-01-11T06:46:56;28.30;;;15.43;;
83354;SDS011;75108;50.882;5.984;2024-01-11T06:49:21;24.93;;;15.27;;
83354;SDS011;75108;50.882;5.984;2024-01-11T06:51:47;31.40;;;15.83;;
83354;SDS011;75108;50.882;5.984;2024-01-11T06:54:12;26.93;;;15.67;;
83354;SDS011;75108;50.882;5.984;2024-01-11T06:56:38;30.90;;;15.83;;
83354;SDS011;75108;50.882;5.984;2024-01-11T06:59:03;26.77;;;15.47;;
83354;SDS011;75108;50.882;5.984;2024-01-11T07:01:29;27.27;;;14.93;;
83354;SDS011;75108;50.882;5.984;2024-01-11T07:03:54;27.30;;;15.40;;
83354;SDS011;75108;50.882;5.984;2024-01-11T07:06:20;23.70;;;14.43;;
83354;SDS011;75108;50.882;5.984;2024-01-11T07:08:45;25.83;;;14.60;;
83354;SDS011;75108;50.882;5.984;2024-01-11T07:11:11;28.77;;;15.00;;
83354;SDS011;75108;50.882;5.984;2024-01-11T07:13:36;21.97;;;14.80;;
83354;SDS011;75108;50.882;5.984;2024-01-11T07:16:02;24.73;;;14.63;;
83354;SDS011;75108;50.882;5.984;2024-01-11T07:18:28;26.15;;;15.43;;
83354;SDS011;75108;50.882;5.984;2024-01-11T07:20:56;26.70;;;15.15;;
83354;SDS011;75108;50.882;5.984;2024-01-11T07:23:23;22.45;;;14.50;;
83354;SDS011;75108;50.882;5.984;2024-01-11T07:25:49;23.87;;;15.17;;
83354;SDS011;75108;50.882;5.984;2024-01-11T07:28:14;24.73;;;15.48;;
83354;SDS011;75108;50.882;5.984;2024-01-11T07:30:40;25.53;;;15.63;;
83354;SDS011;75108;50.882;5.984;2024-01-11T07:33:05;23.43;;;14.67;;
83354;SDS011;75108;50.882;5.984;2024-01-11T07:35:31;22.97;;;15.27;;
83354;SDS011;75108;50.882;5.984;2024-01-11T07:37:57;24.57;;;16.00;;
83354;SDS011;75108;50.882;5.984;2024-01-11T07:40:22;22.27;;;15.38;;
83354;SDS011;75108;50.882;5.984;2024-01-11T07:42:48;23.17;;;15.43;;
83354;SDS011;75108;50.882;5.984;2024-01-11T07:45:14;24.10;;;15.77;;
83354;SDS011;75108;50.882;5.984;2024-01-11T07:47:40;26.00;;;16.10;;
83354;SDS011;75108;50.882;5.984;2024-01-11T07:50:06;23.43;;;15.77;;
83354;SDS011;75108;50.882;5.984;2024-01-11T07:52:32;23.27;;;16.23;;
83354;SDS011;75108;50.882;5.984;2024-01-11T07:54:58;22.63;;;16.30;;
83354;SDS011;75108;50.882;5.984;2024-01-11T07:57:31;25.02;;;16.42;;
83354;SDS011;75108;50.882;5.984;2024-01-11T08:00:00;23.60;;;15.98;;
83354;SDS011;75108;50.882;5.984;2024-01-11T08:02:25;22.77;;;15.67;;
83354;SDS011;75108;50.882;5.984;2024-01-11T08:04:51;23.00;;;15.10;;
83354;SDS011;75108;50.882;5.984;2024-01-11T08:07:17;22.03;;;15.20;;
83354;SDS011;75108;50.882;5.984;2024-01-11T08:09:42;24.55;;;14.60;;
83354;SDS011;75108;50.882;5.984;2024-01-11T08:12:14;24.55;;;14.88;;
83354;SDS011;75108;50.882;5.984;2024-01-11T08:14:40;22.40;;;14.37;;
83354;SDS011;75108;50.882;5.984;2024-01-11T08:17:08;20.55;;;14.48;;
83354;SDS011;75108;50.882;5.984;2024-01-11T08:19:34;20.37;;;13.73;;
83354;SDS011;75108;50.882;5.984;2024-01-11T08:22:00;20.25;;;13.98;;
83354;SDS011;75108;50.882;5.984;2024-01-11T08:24:26;19.52;;;14.00;;
83354;SDS011;75108;50.882;5.984;2024-01-11T08:26:51;22.90;;;14.23;;
83354;SDS011;75108;50.882;5.984;2024-01-11T08:29:17;21.65;;;13.32;;
83354;SDS011;75108;50.882;5.984;2024-01-11T08:31:46;20.60;;;13.50;;
83354;SDS011;75108;50.882;5.984;2024-01-11T08:34:11;19.60;;;13.03;;
83354;SDS011;75108;50.882;5.984;2024-01-11T08:36:37;17.90;;;12.75;;
83354;SDS011;75108;50.882;5.984;2024-01-11T08:39:06;22.70;;;12.07;;
